Time;durP1;ratioP1;P1;durP2;ratioP2;P2;SDS_P1;SDS_P2;PMS_P1;PMS_P2;Temp;Humidity;BMP_temperature;BMP_pressure;BME280_temperature;BME280_humidity;BME280_pressure;Samples;Min_cycle;Max_cycle;Signal;HPM_P1;HPM_P2
2022/02/05 00:01:36;;;;;;;25.37;15.47;;;7.10;90.00;;;;;;5034355;28;20029;-67
2022/02/05 00:04:08;;;;;;;26.03;15.17;;;7.10;90.00;;;;;;5034025;28;20017;-67
2022/02/05 00:06:37;;;;;;;32.80;16.73;;;7.10;89.80;;;;;;5033972;28;20022;-67
2022/02/05 00:14:51;;;;;;;27.33;14.83;;;7.00;89.10;;;;;;5031002;28;20107;-67
2022/02/05 00:38:15;;;;;;;34.03;19.73;;;6.70;87.30;;;;;;5033875;28;20032;-67
2022/02/05 00:41:35;;;;;;;27.63;17.20;;;6.50;88.20;;;;;;5033637;28;20110;-67
2022/02/05 00:44:03;;;;;;;35.10;18.97;;;6.50;88.70;;;;;;5033521;28;20474;-67
2022/02/05 00:46:35;;;;;;;29.37;17.80;;;6.50;88.70;;;;;;5033762;28;20429;-67
2022/02/05 00:49:01;;;;;;;32.42;18.25;;;6.50;88.50;;;;;;5033290;28;20033;-67
2022/02/05 00:51:36;;;;;;;37.17;17.10;;;6.50;89.00;;;;;;5033077;28;20040;-67
2022/02/05 00:57:20;;;;;;;33.80;16.60;;;6.40;87.80;;;;;;5033040;28;20025;-66
2022/02/05 00:59:22;;;;;;;32.47;16.57;;;6.30;87.70;;;;;;5032694;28;20032;-67
2022/02/05 01:01:48;;;;;;;33.23;16.07;;;6.30;88.40;;;;;;5033299;28;20085;-67
2022/02/05 01:04:14;;;;;;;34.77;16.57;;;6.30;89.00;;;;;;5033324;28;20025;-67
2022/02/05 01:06:41;;;;;;;25.53;15.00;;;6.30;89.20;;;;;;5033265;28;20394;-67
2022/02/05 01:09:16;;;;;;;31.37;15.33;;;6.30;89.30;;;;;;5032759;28;20115;-67
2022/02/05 01:11:42;;;;;;;26.37;15.07;;;6.40;89.30;;;;;;5033019;28;20477;-66
2022/02/05 01:14:10;;;;;;;23.30;14.73;;;6.40;89.00;;;;;;5033324;28;20088;-66
2022/02/05 01:19:12;;;;;;;28.27;15.80;;;6.30;88.90;;;;;;5032920;28;20043;-66
2022/02/05 01:21:45;;;;;;;29.80;17.57;;;6.30;89.10;;;;;;5032954;28;20119;-67
2022/02/05 01:24:15;;;;;;;30.90;17.77;;;6.30;89.10;;;;;;5032819;28;20441;-66
2022/02/05 01:26:51;;;;;;;30.20;18.07;;;6.30;89.20;;;;;;5035184;28;20030;-67
2022/02/05 01:31:58;;;;;;;31.67;17.77;;;6.30;89.40;;;;;;5036939;28;20482;-67
2022/02/05 01:34:33;;;;;;;30.13;17.63;;;6.30;89.40;;;;;;5036812;28;20088;-67
2022/02/05 02:12:06;;;;;;;26.43;13.70;;;6.40;90.00;;;;;;5036332;28;20525;-67
2022/02/05 02:14:53;;;;;;;20.33;11.57;;;6.40;90.00;;;;;;5035863;28;20388;-66
2022/02/05 02:22:50;;;;;;;21.20;11.17;;;6.50;90.00;;;;;;5036047;28;20038;-67
2022/02/05 02:25:33;;;;;;;15.67;10.20;;;6.50;90.00;;;;;;5035845;28;20025;-67
2022/02/05 02:28:07;;;;;;;22.40;10.55;;;6.60;90.10;;;;;;5035588;28;20410;-66
2022/02/05 02:30:39;;;;;;;21.67;10.73;;;6.60;90.10;;;;;;5035613;28;20072;-66
2022/02/05 02:33:17;;;;;;;23.73;11.00;;;6.50;90.10;;;;;;5035600;28;20478;-67
2022/02/05 02:35:46;;;;;;;22.33;10.90;;;6.50;90.10;;;;;;5035344;28;20091;-67
2022/02/05 02:38:16;;;;;;;22.20;10.83;;;6.60;90.10;;;;;;5034749;28;20018;-67
2022/02/05 02:40:58;;;;;;;17.27;10.73;;;6.50;90.10;;;;;;5035556;28;20017;-66
2022/02/05 02:43:27;;;;;;;23.05;11.05;;;6.50;90.20;;;;;;5035281;28;20504;-67
2022/02/05 02:45:53;;;;;;;20.53;11.27;;;6.50;90.20;;;;;;5035463;28;20048;-67
2022/02/05 02:48:19;;;;;;;25.67;11.43;;;6.50;90.30;;;;;;5035425;28;20030;-67
2022/02/05 02:59:04;;;;;;;25.60;13.40;;;6.50;89.90;;;;;;5034923;28;20029;-67
2022/02/05 03:01:31;;;;;;;29.97;15.17;;;6.40;89.70;;;;;;5035214;28;20026;-67
2022/02/05 03:03:57;;;;;;;27.33;13.40;;;6.40;89.60;;;;;;5035685;28;20072;-67
2022/02/05 03:06:22;;;;;;;22.13;13.50;;;6.30;89.70;;;;;;5035423;28;20061;-66
2022/02/05 03:08:49;;;;;;;19.23;11.80;;;6.30;89.90;;;;;;5035132;28;20037;-67
2022/02/05 03:11:19;;;;;;;19.87;11.70;;;6.20;89.90;;;;;;5035106;28;20038;-67
2022/02/05 03:13:48;;;;;;;19.10;11.03;;;6.20;89.90;;;;;;5035072;28;20021;-66
2022/02/05 03:16:25;;;;;;;16.80;10.53;;;6.10;90.00;;;;;;5035129;28;20047;-67
2022/02/05 03:21:23;;;;;;;21.80;11.17;;;6.10;89.70;;;;;;5035039;28;20033;-67
2022/02/05 03:23:49;;;;;;;17.43;11.13;;;6.00;89.80;;;;;;5033930;28;20382;-67
2022/02/05 03:26:15;;;;;;;17.83;10.37;;;6.00;89.90;;;;;;5035086;28;20025;-67
2022/02/05 03:28:40;;;;;;;17.00;10.10;;;6.00;89.70;;;;;;5034682;28;20021;-66
2022/02/05 03:31:06;;;;;;;16.87;9.50;;;6.00;89.30;;;;;;5034509;28;20098;-67
2022/02/05 03:33:32;;;;;;;16.33;10.10;;;5.90;89.40;;;;;;5034708;28;20030;-67
2022/02/05 03:35:58;;;;;;;18.57;9.53;;;5.90;89.40;;;;;;5034932;28;20034;-67
2022/02/05 03:38:24;;;;;;;18.83;10.13;;;5.90;89.40;;;;;;5034686;28;20036;-67
2022/02/05 03:40:49;;;;;;;17.30;9.50;;;5.90;89.50;;;;;;5034505;28;20065;-66
2022/02/05 03:43:15;;;;;;;17.47;9.47;;;5.90;89.60;;;;;;5034426;28;20029;-67
2022/02/05 03:45:41;;;;;;;18.03;9.90;;;5.90;89.50;;;;;;5034643;28;20033;-67
2022/02/05 03:48:07;;;;;;;22.83;10.87;;;5.80;89.60;;;;;;5034504;28;20533;-67
2022/02/05 03:50:33;;;;;;;18.37;10.80;;;5.80;89.70;;;;;;5033053;28;20042;-66
2022/02/05 03:52:59;;;;;;;20.97;10.40;;;5.80;89.80;;;;;;5034404;28;20037;-67
2022/02/05 03:55:25;;;;;;;18.33;9.77;;;5.80;90.00;;;;;;5034326;28;20527;-66
2022/02/05 03:57:51;;;;;;;14.07;9.60;;;5.80;90.10;;;;;;5034063;28;20025;-66
2022/02/05 04:00:17;;;;;;;22.60;8.93;;;5.70;90.10;;;;;;5034204;28;20030;-66
2022/02/05 04:02:43;;;;;;;16.90;9.10;;;5.80;90.20;;;;;;5034036;28;20046;-67
2022/02/05 04:05:09;;;;;;;15.73;9.37;;;5.80;90.20;;;;;;5034023;28;20512;-67
2022/02/05 04:07:39;;;;;;;15.83;8.93;;;5.80;90.40;;;;;;5033905;28;20040;-66
2022/02/05 04:10:08;;;;;;;15.37;9.07;;;5.80;90.10;;;;;;5033644;28;20052;-67
2022/02/05 04:18:02;;;;;;;13.07;8.53;;;5.90;90.20;;;;;;5033934;28;20071;-67
2022/02/05 04:20:28;;;;;;;13.70;8.40;;;5.90;90.20;;;;;;5033770;28;20030;-67
2022/02/05 04:22:54;;;;;;;17.27;9.00;;;5.90;90.20;;;;;;5033905;28;20026;-67
2022/02/05 04:25:20;;;;;;;15.60;8.10;;;5.90;90.30;;;;;;5033871;28;20029;-67
2022/02/05 04:27:46;;;;;;;17.50;8.10;;;5.90;90.30;;;;;;5033868;28;20497;-70
2022/02/05 04:30:12;;;;;;;15.37;7.90;;;6.00;90.30;;;;;;5033183;28;20034;-66
2022/02/05 04:32:39;;;;;;;13.17;7.83;;;6.00;90.30;;;;;;5033704;28;20033;-70
2022/02/05 04:35:05;;;;;;;13.87;8.30;;;6.10;90.20;;;;;;5033860;28;20025;-67
2022/02/05 04:37:31;;;;;;;17.13;8.00;;;6.10;90.10;;;;;;5033471;28;20029;-67
2022/02/05 04:40:49;;;;;;;16.37;7.60;;;6.10;90.10;;;;;;5033395;28;20454;-67
2022/02/05 04:58:36;;;;;;;16.50;7.20;;;6.30;89.90;;;;;;5033297;28;20508;-67
2022/02/05 05:01:00;;;;;;;15.27;6.93;;;6.30;89.90;;;;;;5032907;28;20040;-67
2022/02/05 05:15:21;;;;;;;13.67;7.00;;;6.50;89.50;;;;;;5033210;28;20036;-67
2022/02/05 05:19:27;;;;;;;18.47;6.70;;;6.50;89.20;;;;;;5032914;28;20159;-68
2022/02/05 05:21:54;;;;;;;18.33;6.83;;;6.50;89.20;;;;;;5033193;28;20541;-67
2022/02/05 05:24:20;;;;;;;15.27;7.10;;;6.50;89.00;;;;;;5033101;28;20018;-67
2022/02/05 05:26:46;;;;;;;13.10;6.50;;;6.60;88.90;;;;;;5033090;28;20029;-67
2022/02/05 05:29:12;;;;;;;11.93;6.03;;;6.60;88.90;;;;;;5032908;28;20032;-66
2022/02/05 05:31:37;;;;;;;17.47;6.17;;;6.60;88.90;;;;;;5032808;28;20124;-67
2022/02/05 05:34:03;;;;;;;15.10;6.13;;;6.60;88.80;;;;;;5033212;28;20053;-67
2022/02/05 05:36:29;;;;;;;16.50;6.93;;;6.60;88.80;;;;;;5033294;28;20076;-66
2022/02/05 05:39:01;;;;;;;15.93;6.67;;;6.60;88.90;;;;;;5032798;28;20022;-67
2022/02/05 05:41:27;;;;;;;15.77;6.80;;;6.60;88.80;;;;;;5033063;28;20041;-67
2022/02/05 05:44:12;;;;;;;16.10;8.37;;;6.70;88.70;;;;;;5032797;28;20021;-67
2022/02/05 05:46:44;;;;;;;15.27;7.63;;;6.70;88.40;;;;;;5032933;28;20049;-67
2022/02/05 05:51:39;;;;;;;15.70;9.13;;;6.70;88.20;;;;;;5032905;28;20477;-66
2022/02/05 05:54:05;;;;;;;18.33;9.57;;;6.60;88.00;;;;;;5032850;28;20079;-67
2022/02/05 05:56:33;;;;;;;16.93;9.63;;;6.70;87.90;;;;;;5032792;28;20545;-67
2022/02/05 05:59:00;;;;;;;18.27;11.20;;;6.60;87.90;;;;;;5032817;28;20106;-67
2022/02/05 06:01:25;;;;;;;18.40;10.87;;;6.60;88.00;;;;;;5032751;28;20018;-69
2022/02/05 06:03:51;;;;;;;16.27;10.40;;;6.60;88.20;;;;;;5032768;28;20091;-67
2022/02/05 06:06:17;;;;;;;18.10;10.37;;;6.50;88.40;;;;;;5032837;28;20026;-67
2022/02/05 06:08:42;;;;;;;21.80;11.13;;;6.50;88.60;;;;;;5032522;28;20025;-67
2022/02/05 06:11:08;;;;;;;19.77;11.67;;;6.50;88.70;;;;;;5032553;28;20083;-67
2022/02/05 06:13:35;;;;;;;20.53;12.50;;;6.50;88.70;;;;;;5034544;28;20030;-67
2022/02/05 06:16:04;;;;;;;19.30;12.90;;;6.50;88.60;;;;;;5036275;28;20029;-67
2022/02/05 06:18:30;;;;;;;22.47;13.33;;;6.50;88.70;;;;;;5036111;28;20171;-67
2022/02/05 06:20:56;;;;;;;26.40;15.73;;;6.50;88.60;;;;;;5036179;28;20108;-66
2022/02/05 06:23:21;;;;;;;24.57;14.87;;;6.50;88.80;;;;;;5034741;28;20049;-66
2022/02/05 06:25:47;;;;;;;25.63;14.30;;;6.50;88.80;;;;;;5034396;28;20048;-66
2022/02/05 06:28:15;;;;;;;32.13;13.73;;;6.50;88.80;;;;;;5033196;28;20053;-67
2022/02/05 06:30:42;;;;;;;19.97;13.53;;;6.50;88.70;;;;;;5035746;28;20082;-67
2022/02/05 06:33:08;;;;;;;25.70;14.03;;;6.50;88.70;;;;;;5035516;28;20025;-67
2022/02/05 06:35:34;;;;;;;23.97;14.67;;;6.50;88.90;;;;;;5035750;28;20022;-67
2022/02/05 06:38:00;;;;;;;27.13;15.17;;;6.50;88.90;;;;;;5035873;28;20099;-67
2022/02/05 06:40:26;;;;;;;29.57;15.60;;;6.50;88.90;;;;;;5034610;28;20057;-67
2022/02/05 06:42:52;;;;;;;26.07;15.13;;;6.50;88.70;;;;;;5035173;28;20022;-69
2022/02/05 06:45:17;;;;;;;30.13;16.90;;;6.50;88.60;;;;;;5035736;28;20355;-66
2022/02/05 06:47:43;;;;;;;28.73;16.07;;;6.50;88.70;;;;;;5035696;28;20092;-66
2022/02/05 06:50:10;;;;;;;32.53;17.63;;;6.50;88.80;;;;;;5035513;28;20473;-66
2022/02/05 06:52:36;;;;;;;34.57;19.03;;;6.50;89.00;;;;;;5035552;28;20497;-66
2022/02/05 06:55:03;;;;;;;28.23;17.93;;;6.50;89.10;;;;;;5035472;28;20036;-67
2022/02/05 06:57:29;;;;;;;40.87;19.27;;;6.50;89.20;;;;;;5034980;28;20022;-67
2022/02/05 06:59:54;;;;;;;31.70;17.83;;;6.50;89.20;;;;;;5035538;28;20071;-67
2022/02/05 07:02:20;;;;;;;33.67;18.60;;;6.60;89.30;;;;;;5035187;28;20029;-67
2022/02/05 07:04:47;;;;;;;32.93;17.97;;;6.50;89.30;;;;;;5035178;28;20026;-67
2022/02/05 07:07:13;;;;;;;33.37;17.70;;;6.60;89.60;;;;;;5035117;28;20022;-67
2022/02/05 07:09:39;;;;;;;30.80;17.90;;;6.50;90.00;;;;;;5034763;28;20106;-67
2022/02/05 07:12:06;;;;;;;33.80;16.20;;;6.60;89.70;;;;;;5032927;28;20031;-66
2022/02/05 07:14:36;;;;;;;32.23;19.17;;;6.60;89.60;;;;;;5034912;28;20021;-67
2022/02/05 07:17:17;;;;;;;30.03;18.17;;;6.60;90.00;;;;;;5034701;28;20501;-70
2022/02/05 07:22:15;;;;;;;29.90;18.47;;;6.60;89.60;;;;;;5035199;28;20029;-69
2022/02/05 07:30:09;;;;;;;32.10;17.53;;;6.70;89.80;;;;;;5030752;28;20056;-69
2022/02/05 07:32:35;;;;;;;25.63;16.77;;;6.70;89.80;;;;;;5032332;28;20448;-69
2022/02/05 07:35:01;;;;;;;27.50;15.37;;;6.70;90.00;;;;;;5032006;28;20025;-68
2022/02/05 07:37:26;;;;;;;19.80;12.77;;;6.70;90.00;;;;;;5033796;28;20024;-67
2022/02/05 07:39:52;;;;;;;22.47;11.83;;;6.70;90.00;;;;;;5033970;28;20492;-68
2022/02/05 07:42:19;;;;;;;18.40;10.43;;;6.70;90.00;;;;;;5032315;28;20056;-67
2022/02/05 07:44:47;;;;;;;20.73;10.83;;;6.70;90.10;;;;;;5031138;28;20063;-68
2022/02/05 07:47:13;;;;;;;19.93;9.60;;;6.70;90.10;;;;;;5032624;28;20049;-68
2022/02/05 07:49:42;;;;;;;20.50;8.97;;;6.70;90.00;;;;;;5034063;28;20029;-68
2022/02/05 07:52:11;;;;;;;19.23;8.80;;;6.80;90.00;;;;;;5034112;28;20029;-67
2022/02/05 07:54:38;;;;;;;18.77;7.77;;;6.80;90.00;;;;;;5034302;28;20097;-67
2022/02/05 07:57:04;;;;;;;19.07;8.33;;;6.80;89.80;;;;;;5034517;28;20026;-66
2022/02/05 07:59:30;;;;;;;16.17;8.43;;;6.90;89.60;;;;;;5033948;28;20025;-68
2022/02/05 08:01:55;;;;;;;17.87;8.27;;;6.90;89.40;;;;;;5033281;28;20040;-67
2022/02/05 08:04:21;;;;;;;18.77;9.07;;;7.00;89.00;;;;;;5033963;28;20025;-66
2022/02/05 08:06:47;;;;;;;19.03;8.77;;;7.00;88.70;;;;;;5033596;28;20447;-67
2022/02/05 08:09:23;;;;;;;20.90;8.97;;;7.10;88.40;;;;;;5031879;28;20128;-68
2022/02/05 08:12:06;;;;;;;25.20;9.17;;;7.20;88.20;;;;;;5033411;28;20061;-67
2022/02/05 08:14:35;;;;;;;20.98;9.82;;;7.20;87.90;;;;;;5032605;28;20018;-67
2022/02/05 08:17:14;;;;;;;24.53;10.40;;;7.30;87.40;;;;;;5032431;28;20080;-68
2022/02/05 08:19:39;;;;;;;22.27;9.93;;;7.40;87.10;;;;;;5033639;28;20113;-67
2022/02/05 08:22:05;;;;;;;23.93;12.77;;;7.50;87.10;;;;;;5033487;28;20707;-68
2022/02/05 08:24:31;;;;;;;22.73;13.63;;;7.60;86.90;;;;;;5033500;28;20048;-67
2022/02/05 08:26:56;;;;;;;36.53;14.90;;;7.70;86.70;;;;;;5033765;28;20021;-68
2022/02/05 08:29:22;;;;;;;25.30;13.07;;;7.70;86.50;;;;;;5033568;28;20022;-68
2022/02/05 08:31:48;;;;;;;25.33;12.27;;;7.80;86.70;;;;;;5033376;28;20037;-67
2022/02/05 08:34:14;;;;;;;19.27;11.90;;;7.80;86.90;;;;;;5033450;28;20471;-68
2022/02/05 08:36:45;;;;;;;23.83;10.83;;;7.90;86.60;;;;;;5032843;28;20030;-68
2022/02/05 08:39:12;;;;;;;19.57;9.03;;;8.00;85.90;;;;;;5032844;28;20018;-70
2022/02/05 08:41:38;;;;;;;20.17;9.13;;;8.00;85.50;;;;;;5033036;28;20037;-71
2022/02/05 08:44:04;;;;;;;19.73;8.50;;;8.10;85.20;;;;;;5032493;28;20021;-70
2022/02/05 08:46:30;;;;;;;21.33;8.83;;;8.10;84.50;;;;;;5031528;28;20087;-69
2022/02/05 08:48:55;;;;;;;17.57;8.00;;;8.20;84.20;;;;;;5032968;28;20422;-68
2022/02/05 08:51:21;;;;;;;19.37;8.80;;;8.30;84.10;;;;;;5033136;28;20477;-67
2022/02/05 08:53:47;;;;;;;17.50;7.93;;;8.40;83.70;;;;;;5033282;28;20018;-70
2022/02/05 08:56:13;;;;;;;14.90;7.97;;;8.50;83.40;;;;;;5033041;28;20378;-68
2022/02/05 08:58:38;;;;;;;17.33;7.63;;;8.50;83.10;;;;;;5032904;28;20018;-68
2022/02/05 09:01:18;;;;;;;21.50;8.83;;;8.60;82.90;;;;;;5032259;28;20025;-70
2022/02/05 09:03:56;;;;;;;16.03;6.43;;;8.70;82.40;;;;;;5032902;28;20041;-70
2022/02/05 09:06:27;;;;;;;16.27;6.60;;;8.80;82.20;;;;;;5032050;28;20057;-67
2022/02/05 09:09:00;;;;;;;14.40;7.17;;;8.80;82.00;;;;;;5031393;28;20549;-69
2022/02/05 09:16:21;;;;;;;22.37;8.00;;;8.90;81.80;;;;;;5031645;28;20394;-67
2022/02/05 09:18:47;;;;;;;17.03;8.10;;;9.00;82.00;;;;;;5032057;28;20474;-68
2022/02/05 09:21:15;;;;;;;20.00;7.90;;;9.10;81.90;;;;;;5031548;28;20364;-70
2022/02/05 09:23:43;;;;;;;12.17;7.13;;;9.20;81.50;;;;;;5032059;28;20033;-69
2022/02/05 09:26:11;;;;;;;22.87;9.03;;;9.20;81.10;;;;;;5031334;28;20084;-68
2022/02/05 09:28:36;;;;;;;19.03;8.90;;;9.30;81.20;;;;;;5031744;28;20067;-68
2022/02/05 09:33:39;;;;;;;19.83;8.43;;;9.40;80.80;;;;;;5031319;28;20038;-70
2022/02/05 09:36:07;;;;;;;15.87;8.50;;;9.50;80.70;;;;;;5031021;28;20387;-69
2022/02/05 09:38:33;;;;;;;16.00;8.13;;;9.60;81.10;;;;;;5031742;28;20021;-68
2022/02/05 09:40:59;;;;;;;17.70;8.20;;;9.60;80.70;;;;;;5031161;28;20413;-67
2022/02/05 09:43:27;;;;;;;17.47;7.93;;;9.70;80.80;;;;;;5030280;28;20032;-70
2022/02/05 09:45:56;;;;;;;15.40;8.50;;;9.80;81.00;;;;;;5030066;28;20398;-69
2022/02/05 09:48:23;;;;;;;19.17;8.60;;;9.90;80.70;;;;;;5035420;28;20509;-70
2022/02/05 09:50:49;;;;;;;18.30;9.47;;;9.90;80.70;;;;;;5035771;28;20045;-68
2022/02/05 09:53:17;;;;;;;21.00;9.47;;;10.00;80.80;;;;;;5035340;28;20387;-69
2022/02/05 09:55:44;;;;;;;21.33;8.83;;;10.10;80.70;;;;;;5036121;28;20026;-67
2022/02/05 09:58:10;;;;;;;23.07;9.63;;;10.20;80.70;;;;;;5035571;28;20018;-68
2022/02/05 10:00:37;;;;;;;30.33;11.17;;;10.20;80.90;;;;;;5035632;28;20036;-69
2022/02/05 10:03:21;;;;;;;32.67;11.50;;;10.30;80.90;;;;;;5035171;28;20018;-70
2022/02/05 10:06:12;;;;;;;24.63;10.13;;;10.30;81.10;;;;;;5035431;28;20038;-69
2022/02/05 10:08:46;;;;;;;22.43;8.40;;;10.40;81.40;;;;;;5035320;28;20076;-67
2022/02/05 10:11:12;;;;;;;296.67;121.00;;;10.50;80.90;;;;;;5035667;28;20053;-70
2022/02/05 10:13:40;;;;;;;34.20;17.67;;;10.50;81.10;;;;;;5034974;28;20371;-68
2022/02/05 10:16:07;;;;;;;21.60;9.00;;;10.50;80.90;;;;;;5035266;28;20030;-69
2022/02/05 10:18:39;;;;;;;17.37;9.00;;;10.60;80.70;;;;;;5035581;28;20025;-68
2022/02/05 10:21:19;;;;;;;19.13;8.07;;;10.60;80.40;;;;;;5034896;28;20026;-66
2022/02/05 10:24:09;;;;;;;16.23;7.00;;;10.60;80.30;;;;;;5034711;28;20108;-70
2022/02/05 10:26:37;;;;;;;20.70;7.03;;;10.60;80.70;;;;;;5035050;28;20497;-67
2022/02/05 10:29:17;;;;;;;18.67;7.45;;;10.70;80.50;;;;;;5035740;28;20100;-68
2022/02/05 10:34:55;;;;;;;14.83;6.63;;;10.90;80.70;;;;;;5035817;28;20075;-68
2022/02/05 10:37:26;;;;;;;17.50;6.27;;;10.90;80.60;;;;;;5035823;28;20026;-69
2022/02/05 10:45:07;;;;;;;17.73;6.67;;;11.10;80.30;;;;;;5036102;28;20047;-67
2022/02/05 10:47:50;;;;;;;15.82;6.70;;;11.10;81.20;;;;;;5035550;28;20025;-68
2022/02/05 10:50:18;;;;;;;13.80;6.63;;;11.20;80.80;;;;;;5034938;28;20036;-69
2022/02/05 10:53:03;;;;;;;22.25;6.93;;;11.20;80.70;;;;;;5034085;28;20474;-68
2022/02/05 11:06:04;;;;;;;14.45;6.40;;;11.50;80.10;;;;;;5034072;28;20045;-68
2022/02/05 11:08:29;;;;;;;18.92;6.50;;;11.60;79.50;;;;;;5034598;28;20013;-67
2022/02/05 11:21:13;;;;;;;16.98;6.47;;;12.00;78.70;;;;;;5035204;28;20436;-70
2022/02/05 11:23:38;;;;;;;17.10;7.20;;;12.00;78.40;;;;;;5034951;28;20025;-68
2022/02/05 11:26:06;;;;;;;17.20;5.55;;;12.10;78.30;;;;;;5035254;28;20028;-68
2022/02/05 11:28:48;;;;;;;18.20;6.70;;;12.10;77.90;;;;;;5034524;28;20025;-69
2022/02/05 11:31:18;;;;;;;19.63;6.80;;;12.10;77.90;;;;;;5034780;28;20038;-68
2022/02/05 11:33:44;;;;;;;14.88;6.40;;;12.10;77.60;;;;;;5034079;28;20028;-68
2022/02/05 11:38:42;;;;;;;17.20;6.78;;;12.10;77.90;;;;;;5034793;28;20025;-67
2022/02/05 11:41:24;;;;;;;14.82;7.22;;;12.10;78.00;;;;;;5034868;28;20045;-68
2022/02/05 11:44:15;;;;;;;19.10;6.82;;;12.20;78.00;;;;;;5034921;28;20496;-68
2022/02/05 11:46:40;;;;;;;21.52;6.53;;;12.30;77.60;;;;;;5034593;28;20355;-70
2022/02/05 11:49:06;;;;;;;17.65;6.45;;;12.40;77.50;;;;;;5034560;28;20029;-69
2022/02/05 11:51:46;;;;;;;19.35;7.45;;;12.50;77.50;;;;;;5034497;28;20044;-68
2022/02/05 11:54:16;;;;;;;18.85;7.15;;;12.70;77.30;;;;;;5034480;28;20554;-69
2022/02/05 11:56:54;;;;;;;18.52;7.00;;;12.80;76.70;;;;;;5034525;28;20516;-70
2022/02/05 11:59:23;;;;;;;17.58;6.72;;;12.80;76.10;;;;;;5034356;28;20029;-70
2022/02/05 12:01:50;;;;;;;20.40;7.15;;;12.90;75.80;;;;;;5034413;28;20094;-69
2022/02/05 12:04:28;;;;;;;19.10;7.15;;;13.00;75.70;;;;;;5034367;28;20040;-70
2022/02/05 12:07:06;;;;;;;17.02;6.60;;;13.10;75.50;;;;;;5034629;28;20076;-70
2022/02/05 12:09:37;;;;;;;19.05;6.80;;;13.20;74.90;;;;;;5033375;28;20056;-68
2022/02/05 12:12:26;;;;;;;18.88;7.72;;;13.20;74.70;;;;;;5033472;28;20120;-70
2022/02/05 12:15:14;;;;;;;20.75;7.50;;;13.30;74.10;;;;;;5034713;28;20091;-67
2022/02/05 12:18:02;;;;;;;20.00;7.07;;;13.30;73.90;;;;;;5034485;28;20029;-68
2022/02/05 12:20:34;;;;;;;17.23;7.53;;;13.40;74.90;;;;;;5035563;28;20098;-68
2022/02/05 12:23:02;;;;;;;20.75;8.75;;;13.50;74.60;;;;;;5034091;28;20024;-68
2022/02/05 12:25:27;;;;;;;18.75;8.15;;;13.50;73.50;;;;;;5033775;28;20104;-65
2022/02/05 12:27:53;;;;;;;25.27;9.25;;;13.60;73.30;;;;;;5033704;28;20445;-66
2022/02/05 12:30:36;;;;;;;19.38;8.05;;;13.60;73.40;;;;;;5033520;28;20112;-68
2022/02/05 12:33:03;;;;;;;23.10;8.57;;;13.60;73.50;;;;;;5033897;28;20441;-69
2022/02/05 12:35:29;;;;;;;20.30;8.68;;;13.60;72.70;;;;;;5033298;28;20034;-67
2022/02/05 12:38:00;;;;;;;18.30;9.38;;;13.70;72.80;;;;;;5032937;28;20026;-68
2022/02/05 12:40:26;;;;;;;17.60;8.95;;;13.60;72.30;;;;;;5032850;28;20108;-69
2022/02/05 12:42:55;;;;;;;24.38;8.90;;;13.70;72.90;;;;;;5033384;28;20100;-70
2022/02/05 12:45:44;;;;;;;19.95;10.07;;;13.70;73.30;;;;;;5031661;28;20064;-67
2022/02/05 12:48:11;;;;;;;19.15;9.40;;;13.90;72.90;;;;;;5030374;28;20033;-67
2022/02/05 12:50:39;;;;;;;23.83;9.13;;;13.90;72.70;;;;;;5030488;28;20072;-68
2022/02/05 12:53:07;;;;;;;15.70;6.95;;;14.00;72.30;;;;;;5032710;28;20014;-68
2022/02/05 12:55:37;;;;;;;18.58;7.18;;;14.10;71.80;;;;;;5033079;28;20035;-69
2022/02/05 12:58:03;;;;;;;18.38;6.75;;;14.10;71.20;;;;;;5033092;28;20021;-68
2022/02/05 13:00:29;;;;;;;14.90;6.07;;;14.10;71.00;;;;;;5032689;28;20029;-66
2022/02/05 13:02:55;;;;;;;16.30;7.07;;;14.10;70.80;;;;;;5032781;28;20026;-68
2022/02/05 13:05:33;;;;;;;19.08;8.07;;;14.10;70.60;;;;;;5032882;28;20026;-68
2022/02/05 13:07:59;;;;;;;20.25;7.07;;;14.10;71.00;;;;;;5032558;28;20033;-67
2022/02/05 13:10:26;;;;;;;18.83;7.03;;;14.00;71.00;;;;;;5032695;28;20053;-70
2022/02/05 13:12:56;;;;;;;12.07;7.03;;;14.00;70.80;;;;;;5032650;28;20501;-67
2022/02/05 13:15:25;;;;;;;15.55;7.55;;;13.90;71.10;;;;;;5032800;28;20462;-68
2022/02/05 13:36:37;;;;;;;14.02;5.55;;;13.20;73.60;;;;;;5032536;28;20105;-69
2022/02/05 13:39:20;;;;;;;19.13;6.15;;;13.10;74.20;;;;;;5032955;28;20018;-68
2022/02/05 13:41:56;;;;;;;10.75;6.05;;;13.10;74.40;;;;;;5033059;28;20021;-66
2022/02/05 13:44:25;;;;;;;12.57;5.30;;;13.00;74.60;;;;;;5032955;28;20399;-66
2022/02/05 13:47:00;;;;;;;13.75;6.18;;;13.00;74.80;;;;;;5033169;28;20045;-64
2022/02/05 13:49:27;;;;;;;15.13;5.93;;;12.90;75.20;;;;;;5032696;28;20433;-66
2022/02/05 13:51:52;;;;;;;11.05;5.43;;;12.90;75.20;;;;;;5032917;28;20083;-66
2022/02/05 13:54:18;;;;;;;12.82;6.03;;;12.90;75.30;;;;;;5033232;28;20478;-66
2022/02/05 13:56:44;;;;;;;10.65;4.93;;;12.90;76.00;;;;;;5033079;28;20025;-65
2022/02/05 13:59:21;;;;;;;10.10;4.95;;;12.90;75.50;;;;;;5032890;28;20544;-65
2022/02/05 14:01:47;;;;;;;10.70;4.55;;;12.90;75.30;;;;;;5032845;28;20026;-70
2022/02/05 14:04:23;;;;;;;17.95;6.57;;;12.90;75.40;;;;;;5032646;28;20025;-66
2022/02/05 14:06:57;;;;;;;11.20;5.43;;;12.80;75.60;;;;;;5032872;28;20056;-66
2022/02/05 14:09:30;;;;;;;11.88;5.32;;;12.80;75.80;;;;;;5032636;28;20042;-69
2022/02/05 14:11:59;;;;;;;8.60;4.32;;;12.80;75.90;;;;;;5032462;28;20025;-66
2022/02/05 14:14:35;;;;;;;10.88;3.90;;;12.90;75.70;;;;;;5032688;28;20109;-66
2022/02/05 14:17:01;;;;;;;10.13;3.95;;;12.90;75.30;;;;;;5032661;28;20492;-66
2022/02/05 14:19:28;;;;;;;12.90;4.65;;;13.00;75.30;;;;;;5032678;28;20021;-66
2022/02/05 14:21:56;;;;;;;10.38;4.05;;;13.00;75.10;;;;;;5032681;28;20075;-66
2022/02/05 14:24:25;;;;;;;10.15;4.38;;;13.10;75.60;;;;;;5032722;28;20032;-66
2022/02/05 14:27:05;;;;;;;9.30;4.18;;;13.00;75.00;;;;;;5032425;28;20105;-66
2022/02/05 14:29:39;;;;;;;9.65;5.00;;;13.10;75.20;;;;;;5032519;28;20055;-66
2022/02/05 14:32:20;;;;;;;12.43;4.68;;;13.10;75.30;;;;;;5032607;28;20045;-66
2022/02/05 14:35:02;;;;;;;9.13;3.97;;;13.10;75.30;;;;;;5034409;28;20026;-69
2022/02/05 14:40:41;;;;;;;13.65;4.72;;;13.10;75.60;;;;;;5035908;28;20036;-69
2022/02/05 14:43:07;;;;;;;12.82;4.53;;;13.10;75.80;;;;;;5035908;28;20025;-66
2022/02/05 14:45:33;;;;;;;8.32;3.90;;;13.10;75.90;;;;;;5035807;28;20577;-66
2022/02/05 14:47:59;;;;;;;13.68;4.70;;;13.00;75.90;;;;;;5035799;28;20018;-65
2022/02/05 14:50:25;;;;;;;9.48;4.40;;;13.00;76.10;;;;;;5035612;28;20021;-66
2022/02/05 14:52:51;;;;;;;10.02;4.75;;;13.00;76.30;;;;;;5035482;28;20029;-66
2022/02/05 14:55:18;;;;;;;8.40;4.72;;;13.00;76.30;;;;;;5035675;28;20037;-66
2022/02/05 14:57:47;;;;;;;10.52;4.72;;;13.00;76.30;;;;;;5035550;28;20491;-66
2022/02/05 15:00:14;;;;;;;9.13;5.35;;;13.00;76.50;;;;;;5035436;28;20364;-66
2022/02/05 15:02:39;;;;;;;12.98;5.30;;;13.00;76.40;;;;;;5035363;28;20027;-68
2022/02/05 15:05:11;;;;;;;10.88;5.43;;;12.90;76.60;;;;;;5035616;28;20097;-66
2022/02/05 15:07:40;;;;;;;11.55;5.80;;;12.90;76.70;;;;;;5035695;28;20021;-66
2022/02/05 15:10:08;;;;;;;14.35;6.05;;;12.90;76.70;;;;;;5035217;28;20057;-69
2022/02/05 15:12:34;;;;;;;9.65;4.45;;;12.90;76.80;;;;;;5035406;28;20057;-66
2022/02/05 15:14:59;;;;;;;16.65;4.63;;;12.90;76.80;;;;;;5035393;28;20084;-70
2022/02/05 15:17:26;;;;;;;8.90;3.90;;;12.90;76.80;;;;;;5035295;28;20351;-66
2022/02/05 15:19:52;;;;;;;7.57;4.43;;;12.90;76.90;;;;;;5035370;28;20049;-66
2022/02/05 15:22:18;;;;;;;10.10;4.35;;;12.90;77.10;;;;;;5035087;28;20064;-69
2022/02/05 15:24:44;;;;;;;9.30;3.90;;;12.90;77.20;;;;;;5035164;28;20522;-66
2022/02/05 15:27:11;;;;;;;8.40;4.78;;;12.90;77.30;;;;;;5035239;28;20104;-67
2022/02/05 15:29:36;;;;;;;11.23;4.63;;;12.80;77.50;;;;;;5035033;28;20025;-69
2022/02/05 15:32:02;;;;;;;9.25;5.00;;;12.80;77.50;;;;;;5034857;28;20112;-69
2022/02/05 15:34:28;;;;;;;8.55;4.28;;;12.80;77.60;;;;;;5032142;28;20034;-67
2022/02/05 15:37:04;;;;;;;9.88;4.18;;;12.80;77.70;;;;;;5032126;28;20033;-66
2022/02/05 15:44:43;;;;;;;10.60;4.88;;;12.80;77.80;;;;;;5034586;28;20049;-69
2022/02/05 15:47:08;;;;;;;10.52;4.18;;;12.70;77.80;;;;;;5034933;28;20490;-66
2022/02/05 15:49:35;;;;;;;8.48;4.40;;;12.70;78.40;;;;;;5034696;28;20025;-65
2022/02/05 15:52:01;;;;;;;7.85;4.28;;;12.70;77.80;;;;;;5034458;28;20460;-69
2022/02/05 15:54:30;;;;;;;14.18;6.03;;;12.60;77.80;;;;;;5034896;28;20092;-66
2022/02/05 15:57:01;;;;;;;13.27;5.55;;;12.70;77.90;;;;;;5034837;28;20099;-65
2022/02/05 16:02:12;;;;;;;11.18;5.47;;;12.60;78.10;;;;;;5031476;28;20045;-68
2022/02/05 16:04:38;;;;;;;10.63;4.95;;;12.50;78.20;;;;;;5032450;28;20040;-66
2022/02/05 16:07:03;;;;;;;14.63;5.25;;;12.50;78.40;;;;;;5034166;28;20112;-65
2022/02/05 16:09:29;;;;;;;13.05;5.70;;;12.40;78.60;;;;;;5034284;28;20477;-66
2022/02/05 16:11:57;;;;;;;16.75;6.07;;;12.40;78.80;;;;;;5034182;28;20044;-69